Time,TemperatureF,DewpointF,PressureIn,WindDirection,WindDirectionDegrees,WindSpeedMPH,WindSpeedGustMPH,Humidity,HourlyPrecipIn,Conditions,Clouds,dailyrainin,SoftwareType,DateUTC
2013-05-23 00:03:00,50.9,47.8,29.86,West,270,2.9,2.9,89,0.00,CLR,,0.00,WeatherDisplay:10.37,2013-05-23 07:03:00,
2013-05-23 00:08:00,50.9,48.1,29.86,SW,225,2.3,2.3,90,0.00,CLR,,0.00,WeatherDisplay:10.37,2013-05-23 07:08:00,
2013-05-23 00:14:00,50.7,47.6,29.86,South,180,2.3,2.3,89,0.00,CLR,,0.00,WeatherDisplay:10.37,2013-05-23 07:14:00,
2013-05-23 00:19:00,50.9,47.8,29.86,South,180,3.5,3.5,89,0.00,CLR,,0.00,WeatherDisplay:10.37,2013-05-23 07:19:00,
2013-05-23 00:24:00,50.7,47.6,29.86,West,270,6.3,6.3,89,0.00,CLR,,0.00,WeatherDisplay:10.37,2013-05-23 07:24:00,
2013-05-23 00:29:00,50.7,47.9,29.86,West,270,3.5,3.5,90,0.00,CLR,,0.00,WeatherDisplay:10.37,2013-05-23 07:29:00,
2013-05-23 00:34:00,50.7,47.9,29.86,West,270,3.5,3.5,90,0.00,CLR,,0.00,WeatherDisplay:10.37,2013-05-23 07:34:00,
2013-05-23 00:39:00,50.7,47.9,29.86,SSW,202,3.2,3.2,90,0.00,CLR,,0.00,WeatherDisplay:10.37,2013-05-23 07:39:00,
2013-05-23 00:45:00,50.6,47.8,29.86,WSW,251,1.0,3.0,90,0.00,CLR,,0.00,WeatherDisplay:10.37,2013-05-23 07:45:00,
2013-05-23 00:50:00,50.5,47.7,29.86,WSW,250,1.0,5.0,90,0.00,CLR,,0.00,WeatherDisplay:10.37,2013-05-23 07:50:00,
2013-05-23 00:55:00,50.5,47.7,29.86,WSW,248,2.3,2.3,90,0.00,CLR,,0.00,WeatherDisplay:10.37,2013-05-23 07:55:00,
2013-05-23 01:00:00,50.5,47.4,29.85,West,270,3.5,3.5,89,0.00,CLR,,0.00,WeatherDisplay:10.37,2013-05-23 08:00:00,
2013-05-23 01:05:00,50.4,47.2,29.85,SW,225,2.3,2.3,89,0.00,CLR,,0.00,WeatherDisplay:10.37,2013-05-23 08:05:00,
2013-05-23 01:10:00,50.4,47.2,29.85,West,270,4.6,4.6,89,0.00,CLR,,0.00,WeatherDisplay:10.37,2013-05-23 08:10:00,
2013-05-23 01:16:00,50.5,47.4,29.85,West,270,1.7,1.7,89,0.00,CLR,,0.00,WeatherDisplay:10.37,2013-05-23 08:16:00,
2013-05-23 01:21:00,50.4,46.9,29.85,WSW,248,4.6,4.6,88,0.00,CLR,,0.00,WeatherDisplay:10.37,2013-05-23 08:21:00,
2013-05-23 01:26:00,50.4,46.9,29.85,West,270,4.6,4.6,88,0.00,CLR,,0.00,WeatherDisplay:10.37,2013-05-23 08:26:00,
2013-05-23 01:31:00,50.4,46.9,29.85,WNW,292,3.5,3.5,88,0.00,CLR,,0.00,WeatherDisplay:10.37,2013-05-23 08:31:00,
2013-05-23 01:36:00,50.4,46.9,29.85,West,270,2.2,2.2,88,0.00,CLR,,0.00,WeatherDisplay:10.37,2013-05-23 08:36:00,
2013-05-23 01:42:00,50.4,46.6,29.85,West,270,3.5,3.5,87,0.00,CLR,,0.00,WeatherDisplay:10.37,2013-05-23 08:42:00,
2013-05-23 01:47:00,50.4,46.6,29.85,West,270,2.3,2.3,87,0.00,CLR,,0.00,WeatherDisplay:10.37,2013-05-23 08:47:00,
2013-05-23 01:52:00,50.4,46.6,29.85,WSW,248,3.5,3.5,87,0.00,CLR,,0.00,WeatherDisplay:10.37,2013-05-23 08:52:00,
2013-05-23 01:57:00,50.4,46.3,29.85,West,270,3.5,3.5,86,0.00,CLR,,0.00,WeatherDisplay:10.37,2013-05-23 08:57:00,
2013-05-23 02:02:00,50.4,46.6,29.84,SW,225,5.8,5.8,87,0.00,CLR,,0.00,WeatherDisplay:10.37,2013-05-23 09:02:00,
2013-05-23 02:07:00,50.2,46.2,29.84,West,270,6.9,6.9,86,0.00,CLR,,0.00,WeatherDisplay:10.37,2013-05-23 09:07:00,
2013-05-23 02:13:00,50.4,46.3,29.84,West,270,2.3,2.3,86,0.00,CLR,,0.00,WeatherDisplay:10.37,2013-05-23 09:13:00,
2013-05-23 02:18:00,50.4,46.3,29.84,WSW,248,4.1,4.1,86,0.00,CLR,,0.00,WeatherDisplay:10.37,2013-05-23 09:18:00,
2013-05-23 02:23:00,50.4,46.3,29.84,SW,225,3.5,3.5,86,0.00,CLR,,0.00,WeatherDisplay:10.37,2013-05-23 09:23:00,
2013-05-23 02:28:00,50.4,46.3,29.84,WSW,248,4.9,4.9,86,0.00,CLR,,0.00,WeatherDisplay:10.37,2013-05-23 09:28:00,
2013-05-23 02:33:00,50.4,46.3,29.84,SW,225,3.5,3.5,86,0.00,CLR,,0.00,WeatherDisplay:10.37,2013-05-23 09:33:00,
2013-05-23 02:38:00,50.4,46.3,29.84,WSW,248,3.5,3.5,86,0.00,CLR,,0.00,WeatherDisplay:10.37,2013-05-23 09:38:00,
2013-05-23 02:44:00,50.4,46.3,29.84,WNW,292,4.6,4.6,86,0.00,CLR,,0.00,WeatherDisplay:10.37,2013-05-23 09:44:00,
2013-05-23 02:49:00,50.4,46.6,29.84,WSW,248,3.5,3.5,87,0.00,CLR,,0.00,WeatherDisplay:10.37,2013-05-23 09:49:00,
2013-05-23 02:54:00,50.4,46.3,29.83,SSW,202,2.3,2.3,86,0.00,CLR,,0.00,WeatherDisplay:10.37,2013-05-23 09:54:00,
2013-05-23 02:59:00,50.4,46.3,29.83,WNW,292,2.3,2.3,86,0.00,CLR,,0.00,WeatherDisplay:10.37,2013-05-23 09:59:00,
2013-05-23 03:04:00,50.2,46.5,29.83,SSE,158,2.3,2.3,87,0.00,CLR,,0.00,WeatherDisplay:10.37,2013-05-23 10:04:00,
2013-05-23 03:09:00,50.2,46.2,29.83,SW,225,2.0,2.0,86,0.00,CLR,,0.00,WeatherDisplay:10.37,2013-05-23 10:09:00,
2013-05-23 03:15:00,50.2,46.2,29.83,West,270,3.8,3.8,86,0.00,CLR,,0.00,WeatherDisplay:10.37,2013-05-23 10:15:00,
2013-05-23 03:20:00,50.2,46.2,29.83,WSW,242,2.0,2.0,86,0.00,CLR,,0.00,WeatherDisplay:10.37,2013-05-23 10:20:00,
2013-05-23 03:25:00,50.2,46.1,29.83,WSW,239,2.0,5.0,86,0.00,CLR,,0.00,WeatherDisplay:10.37,2013-05-23 10:25:00,
2013-05-23 03:30:00,50.0,46.3,29.83,SW,221,1.0,5.0,87,0.00,CLR,,0.00,WeatherDisplay:10.37,2013-05-23 10:30:00,
2013-05-23 03:35:00,50.0,46.3,29.83,SW,232,1.0,3.0,87,0.00,CLR,,0.00,WeatherDisplay:10.37,2013-05-23 10:35:00,
2013-05-23 03:40:00,50.1,46.4,29.83,SSW,212,3.0,5.0,87,0.00,CLR,,0.00,WeatherDisplay:10.37,2013-05-23 10:40:00,
2013-05-23 03:45:00,50.2,46.2,29.84,SSW,199,1.0,3.0,86,0.00,CLR,,0.00,WeatherDisplay:10.37,2013-05-23 10:45:00,
2013-05-23 03:50:00,50.0,46.3,29.83,WSW,248,4.1,4.1,87,0.00,CLR,,0.00,WeatherDisplay:10.37,2013-05-23 10:50:00,
2013-05-23 03:55:00,50.0,46.3,29.83,WSW,242,1.0,5.0,87,0.00,CLR,,0.00,WeatherDisplay:10.37,2013-05-23 10:55:00,
2013-05-23 04:00:00,50.0,46.6,29.83,SW,234,2.0,3.0,88,0.00,CLR,,0.00,WeatherDisplay:10.37,2013-05-23 11:00:00,
2013-05-23 04:05:00,50.0,46.3,29.83,West,270,4.6,4.6,87,0.00,CLR,,0.00,WeatherDisplay:10.37,2013-05-23 11:05:00,
2013-05-23 04:10:00,49.9,46.5,29.83,WSW,252,0.0,5.0,88,0.00,CLR,,0.00,WeatherDisplay:10.37,2013-05-23 11:10:00,
2013-05-23 04:15:00,50.0,46.6,29.83,WSW,255,0.0,3.0,88,0.00,CLR,,0.00,WeatherDisplay:10.37,2013-05-23 11:15:00,
2013-05-23 04:20:00,50.0,46.3,29.83,WSW,254,2.0,5.0,87,0.00,CLR,,0.00,WeatherDisplay:10.37,2013-05-23 11:20:00,
2013-05-23 04:25:00,50.0,46.3,29.83,West,270,3.5,3.5,87,0.00,CLR,,0.00,WeatherDisplay:10.37,2013-05-23 11:25:00,
2013-05-23 04:30:00,49.8,46.1,29.83,WSW,248,2.3,2.3,87,0.00,CLR,,0.00,WeatherDisplay:10.37,2013-05-23 11:30:00,
2013-05-23 04:35:00,50.0,46.3,29.83,West,270,3.8,3.8,87,0.00,CLR,,0.00,WeatherDisplay:10.37,2013-05-23 11:35:00,
2013-05-23 04:40:00,50.0,46.3,29.83,WSW,248,3.5,0.0,87,0.00,CLR,,0.00,WeatherDisplay:10.37,2013-05-23 11:40:00,
2013-05-23 04:45:00,50.0,46.3,29.83,SSW,202,2.3,2.3,87,0.00,CLR,,0.00,WeatherDisplay:10.37,2013-05-23 11:45:00,
2013-05-23 04:51:00,50.0,46.3,29.83,SW,225,2.0,2.0,87,0.00,CLR,,0.00,WeatherDisplay:10.37,2013-05-23 11:51:00,
2013-05-23 04:56:00,50.0,46.3,29.83,SW,225,5.8,5.8,87,0.00,CLR,,0.00,WeatherDisplay:10.37,2013-05-23 11:56:00,
2013-05-23 05:01:00,49.8,46.1,29.83,NW,315,3.5,3.5,87,0.00,CLR,,0.00,WeatherDisplay:10.37,2013-05-23 12:01:00,
2013-05-23 05:06:00,49.8,45.8,29.83,NW,315,2.3,2.3,86,0.00,CLR,,0.00,WeatherDisplay:10.37,2013-05-23 12:06:00,
2013-05-23 05:11:00,49.8,45.8,29.83,West,270,2.2,2.2,86,0.00,CLR,,0.00,WeatherDisplay:10.37,2013-05-23 12:11:00,
2013-05-23 05:16:00,49.8,46.1,29.83,WSW,248,5.8,5.8,87,0.00,CLR,,0.00,WeatherDisplay:10.37,2013-05-23 12:16:00,
2013-05-23 05:22:00,49.8,45.8,29.83,West,270,2.3,2.3,86,0.00,CLR,,0.00,WeatherDisplay:10.37,2013-05-23 12:22:00,
2013-05-23 05:27:00,49.8,45.8,29.83,SSW,202,4.6,4.6,86,0.00,CLR,,0.00,WeatherDisplay:10.37,2013-05-23 12:27:00,
2013-05-23 05:32:00,49.8,45.8,29.83,West,270,2.3,2.3,86,0.00,CLR,,0.00,WeatherDisplay:10.37,2013-05-23 12:32:00,
2013-05-23 05:37:00,49.8,45.8,29.84,West,270,4.9,4.9,86,0.00,CLR,,0.00,WeatherDisplay:10.37,2013-05-23 12:37:00,
2013-05-23 05:42:00,49.8,46.1,29.84,SW,225,3.5,3.5,87,0.00,CLR,,0.00,WeatherDisplay:10.37,2013-05-23 12:42:00,
2013-05-23 05:47:00,49.8,45.8,29.84,NNW,338,1.2,1.2,86,0.00,CLR,,0.00,WeatherDisplay:10.37,2013-05-23 12:47:00,
2013-05-23 05:53:00,49.8,45.8,29.84,SSE,158,1.2,0.0,86,0.00,CLR,,0.00,WeatherDisplay:10.37,2013-05-23 12:53:00,
2013-05-23 05:58:00,49.8,45.8,29.84,West,270,1.7,1.7,86,0.00,CLR,,0.00,WeatherDisplay:10.37,2013-05-23 12:58:00,
2013-05-23 06:03:00,49.8,45.8,29.85,WSW,248,3.5,3.5,86,0.00,CLR,,0.00,WeatherDisplay:10.37,2013-05-23 13:03:00,
2013-05-23 06:08:00,49.8,45.8,29.85,West,270,2.9,2.9,86,0.00,CLR,,0.00,WeatherDisplay:10.37,2013-05-23 13:08:00,
2013-05-23 06:13:00,50.0,46.0,29.85,NW,315,2.3,2.3,86,0.00,CLR,,0.00,WeatherDisplay:10.37,2013-05-23 13:13:00,
2013-05-23 06:18:00,50.0,46.0,29.85,SW,225,1.4,1.4,86,0.00,CLR,,0.00,WeatherDisplay:10.37,2013-05-23 13:18:00,
2013-05-23 06:24:00,50.0,46.0,29.85,WNW,292,1.2,1.2,86,0.00,CLR,,0.00,WeatherDisplay:10.37,2013-05-23 13:24:00,
2013-05-23 06:29:00,50.0,46.0,29.85,SSW,202,3.5,3.5,86,0.00,CLR,,0.00,WeatherDisplay:10.37,2013-05-23 13:29:00,
2013-05-23 06:34:00,50.2,46.5,29.85,WNW,292,3.5,3.5,87,0.00,CLR,,0.00,WeatherDisplay:10.37,2013-05-23 13:34:00,
2013-05-23 06:39:00,50.4,46.6,29.85,WSW,248,2.7,2.7,87,0.00,CLR,,0.00,WeatherDisplay:10.37,2013-05-23 13:39:00,
2013-05-23 06:44:00,50.4,46.3,29.85,WSW,248,2.3,2.3,86,0.00,CLR,,0.00,WeatherDisplay:10.37,2013-05-23 13:44:00,
2013-05-23 06:49:00,50.5,46.5,29.85,West,270,3.5,3.5,86,0.00,CLR,,0.00,WeatherDisplay:10.37,2013-05-23 13:49:00,
2013-05-23 06:55:00,50.5,46.5,29.86,SW,225,2.3,2.3,86,0.00,CLR,,0.00,WeatherDisplay:10.37,2013-05-23 13:55:00,
2013-05-23 07:00:00,50.7,46.7,29.86,SW,226,3.0,5.0,86,0.00,CLR,,0.00,WeatherDisplay:10.37,2013-05-23 14:00:00,
2013-05-23 07:05:00,50.5,46.5,29.86,SW,221,3.0,5.0,86,0.00,CLR,,0.00,WeatherDisplay:10.37,2013-05-23 14:05:00,
2013-05-23 07:10:00,50.7,46.4,29.86,SW,223,2.0,5.0,85,0.00,CLR,,0.00,WeatherDisplay:10.37,2013-05-23 14:10:00,
2013-05-23 07:15:00,50.7,46.4,29.86,SW,235,2.0,5.0,85,0.00,CLR,,0.00,WeatherDisplay:10.37,2013-05-23 14:15:00,
2013-05-23 07:20:00,50.7,46.4,29.86,SW,229,1.0,5.0,85,0.00,CLR,,0.00,WeatherDisplay:10.37,2013-05-23 14:20:00,
2013-05-23 07:25:00,50.9,46.2,29.86,SSW,202,3.5,3.5,84,0.00,CLR,,0.00,WeatherDisplay:10.37,2013-05-23 14:25:00,
2013-05-23 07:30:00,51.1,46.7,29.87,SSW,202,2.9,2.9,85,0.00,CLR,,0.00,WeatherDisplay:10.37,2013-05-23 14:30:00,
2013-05-23 07:35:00,51.3,46.6,29.87,WSW,248,2.9,2.9,84,0.00,CLR,,0.00,WeatherDisplay:10.37,2013-05-23 14:35:00,
2013-05-23 07:41:00,51.3,46.6,29.87,West,270,4.6,4.6,84,0.00,CLR,,0.00,WeatherDisplay:10.37,2013-05-23 14:41:00,
2013-05-23 07:46:00,51.3,46.6,29.87,West,270,4.6,4.6,84,0.00,CLR,,0.00,WeatherDisplay:10.37,2013-05-23 14:46:00,
2013-05-23 07:51:00,51.3,46.6,29.87,South,180,5.8,5.8,84,0.00,CLR,,0.00,WeatherDisplay:10.37,2013-05-23 14:51:00,
2013-05-23 07:56:00,51.3,46.6,29.88,SW,225,5.8,5.8,84,0.00,CLR,,0.00,WeatherDisplay:10.37,2013-05-23 14:56:00,
2013-05-23 08:01:00,51.4,46.8,29.88,SSW,202,4.9,4.9,84,0.00,CLR,,0.00,WeatherDisplay:10.37,2013-05-23 15:01:00,
2013-05-23 08:06:00,51.6,46.6,29.88,WSW,248,3.5,3.5,83,0.00,CLR,,0.00,WeatherDisplay:10.37,2013-05-23 15:06:00,
2013-05-23 08:12:00,51.4,46.8,29.88,SW,225,2.3,2.3,84,0.00,CLR,,0.00,WeatherDisplay:10.37,2013-05-23 15:12:00,
2013-05-23 08:17:00,51.8,46.8,29.88,SW,225,4.6,4.6,83,0.00,CLR,,0.00,WeatherDisplay:10.37,2013-05-23 15:17:00,
2013-05-23 08:22:00,51.8,46.8,29.88,SE,135,4.6,4.6,83,0.00,CLR,,0.00,WeatherDisplay:10.37,2013-05-23 15:22:00,
2013-05-23 08:27:00,51.8,46.8,29.88,SW,225,4.6,4.6,83,0.00,CLR,,0.00,WeatherDisplay:10.37,2013-05-23 15:27:00,
2013-05-23 08:32:00,51.8,47.1,29.88,SW,225,2.3,2.3,84,0.00,CLR,,0.00,WeatherDisplay:10.37,2013-05-23 15:32:00,
2013-05-23 08:37:00,51.8,47.1,29.89,SSW,202,4.6,4.6,84,0.00,CLR,,0.00,WeatherDisplay:10.37,2013-05-23 15:37:00,
2013-05-23 08:43:00,51.8,47.1,29.89,NNE,22,5.8,5.8,84,0.00,CLR,,0.00,WeatherDisplay:10.37,2013-05-23 15:43:00,
2013-05-23 08:48:00,52.0,47.0,29.89,SW,225,2.7,2.7,83,0.00,CLR,,0.00,WeatherDisplay:10.37,2013-05-23 15:48:00,
2013-05-23 08:53:00,52.2,47.2,29.89,WSW,248,5.8,5.8,83,0.00,CLR,,0.00,WeatherDisplay:10.37,2013-05-23 15:53:00,
2013-05-23 08:58:00,52.0,47.3,29.89,SSE,158,5.8,5.8,84,0.00,CLR,,0.00,WeatherDisplay:10.37,2013-05-23 15:58:00,
2013-05-23 09:03:00,52.0,47.3,29.89,SW,225,5.8,5.8,84,0.00,CLR,,0.00,WeatherDisplay:10.37,2013-05-23 16:03:00,
2013-05-23 09:08:00,52.2,47.5,29.89,SSW,202,4.6,4.6,84,0.00,CLR,,0.00,WeatherDisplay:10.37,2013-05-23 16:08:00,
2013-05-23 09:14:00,52.2,47.2,29.90,South,180,2.4,2.4,83,0.00,CLR,,0.00,WeatherDisplay:10.37,2013-05-23 16:14:00,
2013-05-23 09:19:00,52.5,47.5,29.90,West,270,4.6,4.6,83,0.00,CLR,,0.00,WeatherDisplay:10.37,2013-05-23 16:19:00,
2013-05-23 09:24:00,52.5,47.2,29.90,South,180,3.5,3.5,82,0.00,CLR,,0.00,WeatherDisplay:10.37,2013-05-23 16:24:00,
2013-05-23 09:29:00,52.9,47.5,29.90,SW,225,4.6,4.6,82,0.00,CLR,,0.00,WeatherDisplay:10.37,2013-05-23 16:29:00,
2013-05-23 09:34:00,54.3,48.9,29.90,SW,225,3.5,3.5,82,0.00,CLR,,0.00,WeatherDisplay:10.37,2013-05-23 16:34:00,
2013-05-23 09:39:00,54.7,48.3,29.90,SW,225,3.5,3.5,79,0.00,CLR,,0.00,WeatherDisplay:10.37,2013-05-23 16:39:00,
2013-05-23 09:45:00,55.0,48.0,29.90,SSW,202,5.8,5.8,77,0.00,CLR,,0.00,WeatherDisplay:10.37,2013-05-23 16:45:00,
2013-05-23 09:50:00,55.0,48.3,29.90,South,188,3.0,6.0,78,0.00,CLR,,0.00,WeatherDisplay:10.37,2013-05-23 16:50:00,
2013-05-23 09:55:00,55.9,48.8,29.91,SSW,205,3.0,7.0,77,0.00,CLR,,0.00,WeatherDisplay:10.37,2013-05-23 16:55:00,
2013-05-23 10:00:00,56.3,48.1,29.91,South,180,9.0,9.0,74,0.00,CLR,,0.00,WeatherDisplay:10.37,2013-05-23 17:00:00,
2013-05-23 10:05:00,55.8,48.0,29.91,West,270,6.9,6.9,75,0.00,CLR,,0.00,WeatherDisplay:10.37,2013-05-23 17:05:00,
2013-05-23 10:10:00,56.3,48.1,29.91,SSW,202,9.0,9.0,74,0.00,CLR,,0.00,WeatherDisplay:10.37,2013-05-23 17:10:00,
2013-05-23 10:16:00,56.3,48.1,29.91,South,180,11.2,11.2,74,0.00,CLR,,0.00,WeatherDisplay:10.37,2013-05-23 17:16:00,
2013-05-23 10:21:00,56.7,47.7,29.91,South,180,10.4,10.4,72,0.00,CLR,,0.00,WeatherDisplay:10.37,2013-05-23 17:21:00,
2013-05-23 10:26:00,57.2,48.3,29.91,WSW,248,8.1,8.1,72,0.00,CLR,,0.00,WeatherDisplay:10.37,2013-05-23 17:26:00,
2013-05-23 10:31:00,57.9,48.2,29.91,SSW,202,10.4,10.4,70,0.00,CLR,,0.00,WeatherDisplay:10.37,2013-05-23 17:31:00,
2013-05-23 10:36:00,58.3,47.8,29.91,SW,225,8.7,8.7,68,0.00,CLR,,0.00,WeatherDisplay:10.37,2013-05-23 17:36:00,
2013-05-23 10:41:00,58.5,48.3,29.91,SSW,202,6.0,6.0,69,0.00,CLR,,0.00,WeatherDisplay:10.37,2013-05-23 17:41:00,
2013-05-23 10:47:00,58.5,47.9,29.91,SE,135,8.1,8.1,68,0.00,CLR,,0.00,WeatherDisplay:10.37,2013-05-23 17:47:00,
2013-05-23 10:52:00,59.2,47.8,29.91,South,180,8.1,8.1,66,0.00,CLR,,0.00,WeatherDisplay:10.37,2013-05-23 17:52:00,
2013-05-23 10:57:00,58.8,47.9,29.91,South,180,6.9,6.9,67,0.00,CLR,,0.00,WeatherDisplay:10.37,2013-05-23 17:57:00,
2013-05-23 11:02:00,59.7,47.9,29.91,SSW,202,7.3,7.3,65,0.00,CLR,,0.00,WeatherDisplay:10.37,2013-05-23 18:02:00,
2013-05-23 11:07:00,60.3,48.9,29.91,WSW,248,9.2,9.2,66,0.00,CLR,,0.00,WeatherDisplay:10.37,2013-05-23 18:07:00,
2013-05-23 11:12:00,60.4,48.2,29.91,South,180,6.9,6.9,64,0.00,CLR,,0.00,WeatherDisplay:10.37,2013-05-23 18:12:00,
2013-05-23 11:18:00,61.0,47.9,29.91,South,180,5.8,5.8,62,0.00,CLR,,0.00,WeatherDisplay:10.37,2013-05-23 18:18:00,
2013-05-23 11:23:00,60.8,47.3,29.91,SW,225,8.1,8.1,61,0.00,CLR,,0.00,WeatherDisplay:10.37,2013-05-23 18:23:00,
2013-05-23 11:28:00,61.0,47.9,29.91,SW,225,5.8,5.8,62,0.00,CLR,,0.00,WeatherDisplay:10.37,2013-05-23 18:28:00,
2013-05-23 11:33:00,61.5,48.4,29.91,WSW,248,14.2,14.2,62,0.00,CLR,,0.00,WeatherDisplay:10.37,2013-05-23 18:33:00,
2013-05-23 11:38:00,61.9,47.8,29.91,South,180,6.9,6.9,60,0.00,CLR,,0.00,WeatherDisplay:10.37,2013-05-23 18:38:00,
2013-05-23 11:43:00,62.2,47.7,29.91,South,180,8.1,8.1,59,0.00,CLR,,0.00,WeatherDisplay:10.37,2013-05-23 18:43:00,
2013-05-23 11:49:00,62.8,47.3,29.91,SSW,202,9.8,9.8,57,0.00,CLR,,0.00,WeatherDisplay:10.37,2013-05-23 18:49:00,
2013-05-23 11:54:00,63.0,47.5,29.91,South,180,6.9,6.9,57,0.00,CLR,,0.00,WeatherDisplay:10.37,2013-05-23 18:54:00,
2013-05-23 11:59:00,63.1,46.7,29.91,WSW,248,6.9,6.9,55,0.00,CLR,,0.00,WeatherDisplay:10.37,2013-05-23 18:59:00,
2013-05-23 12:04:00,63.5,47.0,29.91,WSW,248,8.1,8.1,55,0.00,CLR,,0.00,WeatherDisplay:10.37,2013-05-23 19:04:00,
2013-05-23 12:09:00,63.7,45.7,29.91,WSW,248,8.1,8.1,52,0.00,CLR,,0.00,WeatherDisplay:10.37,2013-05-23 19:09:00,
2013-05-23 12:14:00,63.5,46.1,29.91,East,90,11.5,11.5,53,0.00,CLR,,0.00,WeatherDisplay:10.37,2013-05-23 19:14:00,
2013-05-23 12:20:00,64.4,46.9,29.91,WSW,248,9.2,9.2,53,0.00,CLR,,0.00,WeatherDisplay:10.37,2013-05-23 19:20:00,
2013-05-23 12:25:00,64.7,46.7,29.91,SSW,210,12.0,14.0,52,0.00,CLR,,0.00,WeatherDisplay:10.37,2013-05-23 19:25:00,
2013-05-23 12:30:00,64.3,46.8,29.91,SSW,206,6.0,10.0,53,0.00,CLR,,0.00,WeatherDisplay:10.37,2013-05-23 19:30:00,
2013-05-23 12:35:00,63.7,46.8,29.91,SSW,203,7.0,15.0,54,0.00,CLR,,0.00,WeatherDisplay:10.37,2013-05-23 19:35:00,
2013-05-23 12:40:00,64.5,46.9,29.91,SW,216,6.0,12.0,53,0.00,CLR,,0.00,WeatherDisplay:10.37,2013-05-23 19:40:00,
2013-05-23 12:45:00,65.3,47.2,29.90,SSW,210,7.0,13.0,52,0.00,CLR,,0.00,WeatherDisplay:10.37,2013-05-23 19:45:00,
2013-05-23 12:50:00,66.2,46.5,29.91,SSW,197,2.0,12.0,49,0.00,CLR,,0.00,WeatherDisplay:10.37,2013-05-23 19:50:00,
2013-05-23 12:55:00,66.6,46.3,29.91,SSW,210,6.0,12.0,48,0.00,CLR,,0.00,WeatherDisplay:10.37,2013-05-23 19:55:00,
2013-05-23 13:00:00,66.8,45.9,29.91,SSW,212,5.0,9.0,47,0.00,CLR,,0.00,WeatherDisplay:10.37,2013-05-23 20:00:00,
2013-05-23 13:05:00,66.6,46.3,29.91,SW,228,6.0,12.0,48,0.00,CLR,,0.00,WeatherDisplay:10.37,2013-05-23 20:05:00,
2013-05-23 13:10:00,66.6,45.7,29.91,SW,229,5.0,9.0,47,0.00,CLR,,0.00,WeatherDisplay:10.37,2013-05-23 20:10:00,
2013-05-23 13:15:00,66.9,46.0,29.91,SW,227,5.0,8.0,47,0.00,CLR,,0.00,WeatherDisplay:10.37,2013-05-23 20:15:00,
2013-05-23 13:20:00,66.7,45.3,29.91,SSW,213,5.0,9.0,46,0.00,CLR,,0.00,WeatherDisplay:10.37,2013-05-23 20:20:00,
2013-05-23 13:25:00,66.8,44.8,29.91,South,188,6.0,10.0,45,0.00,CLR,,0.00,WeatherDisplay:10.37,2013-05-23 20:25:00,
2013-05-23 13:30:00,66.8,44.7,29.91,SSW,196,5.0,14.0,45,0.00,CLR,,0.00,WeatherDisplay:10.37,2013-05-23 20:30:00,
2013-05-23 13:35:00,67.3,45.2,29.91,West,270,4.6,4.6,45,0.00,CLR,,0.00,WeatherDisplay:10.37,2013-05-23 20:35:00,
2013-05-23 13:40:00,67.3,44.0,29.91,SE,135,9.2,9.2,43,0.00,CLR,,0.00,WeatherDisplay:10.37,2013-05-23 20:40:00,
2013-05-23 13:45:00,67.3,44.0,29.91,SW,225,10.4,10.4,43,0.00,CLR,,0.00,WeatherDisplay:10.37,2013-05-23 20:45:00,
2013-05-23 13:51:00,67.6,44.9,29.91,WSW,248,8.1,8.1,44,0.00,CLR,,0.00,WeatherDisplay:10.37,2013-05-23 20:51:00,
2013-05-23 13:56:00,68.0,44.7,29.91,WSW,248,10.4,10.4,43,0.00,CLR,,0.00,WeatherDisplay:10.37,2013-05-23 20:56:00,
2013-05-23 14:01:00,68.0,43.4,29.91,SSW,202,11.5,11.5,41,0.00,CLR,,0.00,WeatherDisplay:10.37,2013-05-23 21:01:00,
2013-05-23 14:06:00,68.4,44.4,29.90,South,180,10.9,10.9,42,0.00,CLR,,0.00,WeatherDisplay:10.37,2013-05-23 21:06:00,
2013-05-23 14:11:00,68.7,44.1,29.90,South,180,14.7,14.7,41,0.00,CLR,,0.00,WeatherDisplay:10.37,2013-05-23 21:11:00,
2013-05-23 14:16:00,68.9,44.2,29.90,SSE,158,11.5,11.5,41,0.00,CLR,,0.00,WeatherDisplay:10.37,2013-05-23 21:16:00,
2013-05-23 14:22:00,68.5,43.9,29.90,SSW,202,13.0,13.0,41,0.00,CLR,,0.00,WeatherDisplay:10.37,2013-05-23 21:22:00,
2013-05-23 14:27:00,69.4,43.4,29.90,SSW,202,10.4,10.4,39,0.00,CLR,,0.00,WeatherDisplay:10.37,2013-05-23 21:27:00,
2013-05-23 14:32:00,69.8,44.4,29.91,SSW,202,6.9,6.9,40,0.00,CLR,,0.00,WeatherDisplay:10.37,2013-05-23 21:32:00,
2013-05-23 14:37:00,69.6,44.2,29.91,SSE,158,6.9,6.9,40,0.00,CLR,,0.00,WeatherDisplay:10.37,2013-05-23 21:37:00,
2013-05-23 14:42:00,70.0,43.9,29.91,SW,225,8.1,8.1,39,0.00,CLR,,0.00,WeatherDisplay:10.37,2013-05-23 21:42:00,
2013-05-23 14:47:00,69.6,44.2,29.91,SSW,202,9.2,9.2,40,0.00,CLR,,0.00,WeatherDisplay:10.37,2013-05-23 21:47:00,
2013-05-23 14:53:00,70.0,43.9,29.91,WSW,248,7.3,7.3,39,0.00,CLR,,0.00,WeatherDisplay:10.37,2013-05-23 21:53:00,
2013-05-23 14:58:00,70.3,44.2,29.90,NNW,338,10.4,10.4,39,0.00,CLR,,0.00,WeatherDisplay:10.37,2013-05-23 21:58:00,
2013-05-23 15:03:00,70.2,43.4,29.90,ESE,112,8.1,8.1,38,0.00,CLR,,0.00,WeatherDisplay:10.37,2013-05-23 22:03:00,
2013-05-23 15:08:00,70.9,46.6,29.90,WSW,248,8.4,8.4,42,0.00,CLR,,0.00,WeatherDisplay:10.37,2013-05-23 22:08:00,
2013-05-23 15:13:00,70.3,47.4,29.90,South,180,10.4,10.4,44,0.00,CLR,,0.00,WeatherDisplay:10.37,2013-05-23 22:13:00,
2013-05-23 15:18:00,69.8,46.9,29.90,SW,225,10.4,10.4,44,0.00,CLR,,0.00,WeatherDisplay:10.37,2013-05-23 22:18:00,
2013-05-23 15:24:00,70.5,48.1,29.90,West,270,7.3,7.3,45,0.00,CLR,,0.00,WeatherDisplay:10.37,2013-05-23 22:24:00,
2013-05-23 15:29:00,70.3,48.0,29.90,SW,225,7.3,7.3,45,0.00,CLR,,0.00,WeatherDisplay:10.37,2013-05-23 22:29:00,
2013-05-23 15:34:00,69.6,47.3,29.90,South,180,15.0,15.0,45,0.00,CLR,,0.00,WeatherDisplay:10.37,2013-05-23 22:34:00,
2013-05-23 15:39:00,69.6,47.3,29.90,SSW,202,11.5,11.5,45,0.00,CLR,,0.00,WeatherDisplay:10.37,2013-05-23 22:39:00,
2013-05-23 15:44:00,70.2,47.8,29.90,NW,315,4.9,4.9,45,0.00,CLR,,0.00,WeatherDisplay:10.37,2013-05-23 22:44:00,
2013-05-23 15:49:00,69.6,47.3,29.90,South,180,10.4,10.4,45,0.00,CLR,,0.00,WeatherDisplay:10.37,2013-05-23 22:49:00,
2013-05-23 15:55:00,69.1,47.4,29.90,WNW,292,8.1,8.1,46,0.00,CLR,,0.00,WeatherDisplay:10.37,2013-05-23 22:55:00,
2013-05-23 16:00:00,69.1,47.4,29.90,South,180,6.9,6.9,46,0.00,CLR,,0.00,WeatherDisplay:10.37,2013-05-23 23:00:00,
2013-05-23 16:05:00,70.2,46.6,29.90,SSW,202,5.8,5.8,43,0.00,CLR,,0.00,WeatherDisplay:10.37,2013-05-23 23:05:00,
2013-05-23 16:10:00,70.3,47.4,29.90,WNW,292,6.9,6.9,44,0.00,CLR,,0.00,WeatherDisplay:10.37,2013-05-23 23:10:00,
2013-05-23 16:15:00,70.5,46.9,29.90,SSE,158,6.9,6.9,43,0.00,CLR,,0.00,WeatherDisplay:10.37,2013-05-23 23:15:00,
2013-05-23 16:20:00,69.6,46.7,29.90,East,90,5.8,5.8,44,0.00,CLR,,0.00,WeatherDisplay:10.37,2013-05-23 23:20:00,
2013-05-23 16:26:00,69.4,47.2,29.89,WSW,248,8.1,8.1,45,0.00,CLR,,0.00,WeatherDisplay:10.37,2013-05-23 23:26:00,
2013-05-23 16:31:00,70.0,47.7,29.90,WSW,248,6.9,6.9,45,0.00,CLR,,0.00,WeatherDisplay:10.37,2013-05-23 23:31:00,
2013-05-23 16:36:00,69.4,46.6,29.90,SW,225,5.8,5.8,44,0.00,CLR,,0.00,WeatherDisplay:10.37,2013-05-23 23:36:00,
2013-05-23 16:41:00,69.3,47.0,29.90,WNW,292,7.6,7.6,45,0.00,CLR,,0.00,WeatherDisplay:10.37,2013-05-23 23:41:00,
2013-05-23 16:46:00,68.9,47.3,29.90,West,270,4.1,4.1,46,0.00,CLR,,0.00,WeatherDisplay:10.37,2013-05-23 23:46:00,
2013-05-23 16:51:00,68.9,47.8,29.90,West,270,9.2,9.2,47,0.00,CLR,,0.00,WeatherDisplay:10.37,2013-05-23 23:51:00,
2013-05-23 16:57:00,69.1,47.4,29.90,WSW,248,10.4,10.4,46,0.00,CLR,,0.00,WeatherDisplay:10.37,2013-05-23 23:57:00,
2013-05-23 17:02:00,68.5,46.3,29.90,SSE,158,5.8,5.8,45,0.00,CLR,,0.00,WeatherDisplay:10.37,2013-05-24 00:02:00,
2013-05-23 17:07:00,68.9,47.8,29.90,SSW,202,4.9,4.9,47,0.00,CLR,,0.00,WeatherDisplay:10.37,2013-05-24 00:07:00,
2013-05-23 17:12:00,68.4,46.8,29.90,SW,225,10.4,10.4,46,0.00,CLR,,0.00,WeatherDisplay:10.37,2013-05-24 00:12:00,
2013-05-23 17:17:00,68.2,47.2,29.90,SW,225,5.8,5.8,47,0.00,CLR,,0.00,WeatherDisplay:10.37,2013-05-24 00:17:00,
2013-05-23 17:22:00,68.0,47.0,29.90,SSW,202,8.1,8.1,47,0.00,CLR,,0.00,WeatherDisplay:10.37,2013-05-24 00:22:00,
2013-05-23 17:28:00,68.0,47.6,29.90,WNW,292,4.9,4.9,48,0.00,CLR,,0.00,WeatherDisplay:10.37,2013-05-24 00:28:00,
2013-05-23 17:33:00,68.0,47.6,29.90,SW,225,5.8,5.8,48,0.00,CLR,,0.00,WeatherDisplay:10.37,2013-05-24 00:33:00,
2013-05-23 17:38:00,68.2,47.7,29.90,NNE,22,6.9,6.9,48,0.00,CLR,,0.00,WeatherDisplay:10.37,2013-05-24 00:38:00,
2013-05-23 17:43:00,68.0,47.6,29.90,WNW,292,6.9,6.9,48,0.00,CLR,,0.00,WeatherDisplay:10.37,2013-05-24 00:43:00,
2013-05-23 17:48:00,68.0,47.6,29.90,SE,135,2.7,2.7,48,0.00,CLR,,0.00,WeatherDisplay:10.37,2013-05-24 00:48:00,
2013-05-23 17:53:00,67.6,47.8,29.90,WNW,292,2.3,2.3,49,0.00,CLR,,0.00,WeatherDisplay:10.37,2013-05-24 00:53:00,
2013-05-23 17:59:00,67.3,48.0,29.89,NW,315,8.1,8.1,50,0.00,CLR,,0.00,WeatherDisplay:10.37,2013-05-24 00:59:00,
2013-05-23 18:04:00,66.6,47.9,29.89,West,270,5.8,5.8,51,0.00,CLR,,0.00,WeatherDisplay:10.37,2013-05-24 01:04:00,
2013-05-23 18:09:00,66.7,47.5,29.89,NNW,338,2.3,2.3,50,0.00,CLR,,0.00,WeatherDisplay:10.37,2013-05-24 01:09:00,
2013-05-23 18:14:00,66.9,47.7,29.89,West,270,5.8,5.8,50,0.00,CLR,,0.00,WeatherDisplay:10.37,2013-05-24 01:14:00,
2013-05-23 18:19:00,66.6,47.9,29.89,SSE,158,2.3,2.3,51,0.00,CLR,,0.00,WeatherDisplay:10.37,2013-05-24 01:19:00,
2013-05-23 18:24:00,66.2,48.0,29.89,SW,225,8.1,8.1,52,0.00,CLR,,0.00,WeatherDisplay:10.37,2013-05-24 01:24:00,
2013-05-23 18:30:00,65.7,48.1,29.89,West,270,8.1,8.1,53,0.00,CLR,,0.00,WeatherDisplay:10.37,2013-05-24 01:30:00,
2013-05-23 18:35:00,65.1,48.1,29.89,WSW,244,7.0,11.0,54,0.00,CLR,,0.00,WeatherDisplay:10.37,2013-05-24 01:35:00,
2013-05-23 18:40:00,64.9,47.9,29.90,WSW,249,5.0,8.0,54,0.00,CLR,,0.00,WeatherDisplay:10.37,2013-05-24 01:40:00,
2013-05-23 18:45:00,64.8,48.2,29.90,NE,45,8.1,8.1,55,0.00,CLR,,0.00,WeatherDisplay:10.37,2013-05-24 01:45:00,
2013-05-23 18:50:00,64.6,48.0,29.90,WSW,248,5.8,5.8,55,0.00,CLR,,0.00,WeatherDisplay:10.37,2013-05-24 01:50:00,
2013-05-23 18:55:00,64.0,48.0,29.90,WSW,248,6.9,6.9,56,0.00,CLR,,0.00,WeatherDisplay:10.37,2013-05-24 01:55:00,
2013-05-23 19:01:00,63.7,48.2,29.90,SW,225,6.9,6.9,57,0.00,CLR,,0.00,WeatherDisplay:10.37,2013-05-24 02:01:00,
2013-05-23 19:06:00,63.5,48.5,29.90,NNW,338,6.9,6.9,58,0.00,CLR,,0.00,WeatherDisplay:10.37,2013-05-24 02:06:00,
2013-05-23 19:11:00,63.5,48.5,29.90,NNW,338,5.8,5.8,58,0.00,CLR,,0.00,WeatherDisplay:10.37,2013-05-24 02:11:00,
2013-05-23 19:16:00,63.1,48.1,29.90,SW,225,4.6,4.6,58,0.00,CLR,,0.00,WeatherDisplay:10.37,2013-05-24 02:16:00,
2013-05-23 19:21:00,63.0,47.9,29.90,WNW,292,3.5,3.5,58,0.00,CLR,,0.00,WeatherDisplay:10.37,2013-05-24 02:21:00,
2013-05-23 19:26:00,62.8,48.2,29.90,West,270,5.8,5.8,59,0.00,CLR,,0.00,WeatherDisplay:10.37,2013-05-24 02:26:00,
2013-05-23 19:32:00,62.6,48.5,29.91,NNW,338,4.6,4.6,60,0.00,CLR,,0.00,WeatherDisplay:10.37,2013-05-24 02:32:00,
2013-05-23 19:37:00,62.2,48.6,29.91,WNW,292,6.9,6.9,61,0.00,CLR,,0.00,WeatherDisplay:10.37,2013-05-24 02:37:00,
2013-05-23 19:42:00,62.1,48.4,29.91,West,270,5.2,5.2,61,0.00,CLR,,0.00,WeatherDisplay:10.37,2013-05-24 02:42:00,
2013-05-23 19:47:00,61.5,48.4,29.91,West,270,5.8,5.8,62,0.00,CLR,,0.00,WeatherDisplay:10.37,2013-05-24 02:47:00,
2013-05-23 19:52:00,61.0,45.6,29.91,NNW,338,3.5,3.5,57,0.00,CLR,,0.00,WeatherDisplay:10.37,2013-05-24 02:52:00,
2013-05-23 19:57:00,60.4,45.1,29.91,SW,225,2.3,2.3,57,0.00,CLR,,0.00,WeatherDisplay:10.37,2013-05-24 02:57:00,
2013-05-23 20:03:00,59.9,45.1,29.92,NW,315,5.8,5.8,58,0.00,CLR,,0.00,WeatherDisplay:10.37,2013-05-24 03:03:00,
2013-05-23 20:08:00,59.4,45.0,29.92,WSW,248,6.0,6.0,59,0.00,CLR,,0.00,WeatherDisplay:10.37,2013-05-24 03:08:00,
2013-05-23 20:13:00,59.2,45.7,29.92,West,270,7.2,7.2,61,0.00,CLR,,0.00,WeatherDisplay:10.37,2013-05-24 03:13:00,
2013-05-23 20:18:00,58.6,44.8,29.92,NNW,338,5.8,5.8,60,0.00,CLR,,0.00,WeatherDisplay:10.37,2013-05-24 03:18:00,
2013-05-23 20:23:00,58.5,45.5,29.92,WNW,292,5.8,5.8,62,0.00,CLR,,0.00,WeatherDisplay:10.37,2013-05-24 03:23:00,
2013-05-23 20:28:00,57.9,45.8,29.92,WSW,248,5.8,5.8,64,0.00,CLR,,0.00,WeatherDisplay:10.37,2013-05-24 03:28:00,
2013-05-23 20:34:00,57.9,45.8,29.92,SW,225,1.2,1.2,64,0.00,CLR,,0.00,WeatherDisplay:10.37,2013-05-24 03:34:00,
2013-05-23 20:39:00,57.6,45.9,29.92,West,270,4.6,4.6,65,0.00,CLR,,0.00,WeatherDisplay:10.37,2013-05-24 03:39:00,
2013-05-23 20:44:00,57.2,45.9,29.92,WNW,292,3.5,3.5,66,0.00,CLR,,0.00,WeatherDisplay:10.37,2013-05-24 03:44:00,
2013-05-23 20:49:00,56.8,46.0,29.92,West,270,3.5,3.5,67,0.00,CLR,,0.00,WeatherDisplay:10.37,2013-05-24 03:49:00,
2013-05-23 20:54:00,56.5,46.0,29.93,WSW,248,3.5,3.5,68,0.00,CLR,,0.00,WeatherDisplay:10.37,2013-05-24 03:54:00,
2013-05-23 20:59:00,56.3,45.9,29.93,WSW,248,2.0,2.0,68,0.00,CLR,,0.00,WeatherDisplay:10.37,2013-05-24 03:59:00,
2013-05-23 21:01:00,56.3,46.6,29.93,SW,225,4.6,4.6,70,0.00,CLR,,0.00,WeatherDisplay:10.37,2013-05-24 04:01:00,
2013-05-23 21:02:00,56.3,46.6,29.93,SW,225,4.6,4.6,70,0.00,CLR,,0.00,WeatherDisplay:10.37,2013-05-24 04:02:00,
2013-05-23 21:03:00,56.3,46.6,29.93,WSW,248,4.6,4.6,70,0.00,CLR,,0.00,WeatherDisplay:10.37,2013-05-24 04:03:00,
2013-05-23 21:04:00,56.3,46.6,29.93,West,270,2.4,2.4,70,0.00,CLR,,0.00,WeatherDisplay:10.37,2013-05-24 04:04:00,
2013-05-23 21:09:00,56.1,46.8,29.93,SW,225,2.3,2.3,71,0.00,CLR,,0.00,WeatherDisplay:10.37,2013-05-24 04:09:00,
2013-05-23 21:14:00,55.8,47.2,29.93,WNW,292,3.5,3.5,73,0.00,CLR,,0.00,WeatherDisplay:10.37,2013-05-24 04:14:00,
2013-05-23 21:19:00,55.8,47.2,29.93,SW,225,3.5,3.5,73,0.00,CLR,,0.00,WeatherDisplay:10.37,2013-05-24 04:19:00,
2013-05-23 21:24:00,55.4,46.9,29.93,SW,225,2.0,2.0,73,0.00,CLR,,0.00,WeatherDisplay:10.37,2013-05-24 04:24:00,
2013-05-23 21:29:00,55.0,46.5,29.93,SSW,202,2.3,2.3,73,0.00,CLR,,0.00,WeatherDisplay:10.37,2013-05-24 04:29:00,
2013-05-23 21:35:00,54.5,46.4,29.93,West,270,1.7,1.7,74,0.00,CLR,,0.00,WeatherDisplay:10.37,2013-05-24 04:35:00,
2013-05-23 21:40:00,54.3,46.9,29.93,WSW,250,2.0,3.0,76,0.00,CLR,,0.00,WeatherDisplay:10.37,2013-05-24 04:40:00,
2013-05-23 21:45:00,53.9,46.5,29.94,West,262,2.0,2.0,76,0.00,CLR,,0.00,WeatherDisplay:10.37,2013-05-24 04:45:00,
2013-05-23 21:50:00,53.6,46.9,29.94,West,262,1.0,2.0,78,0.00,CLR,,0.00,WeatherDisplay:10.37,2013-05-24 04:50:00,
2013-05-23 21:55:00,53.2,46.9,29.94,West,271,2.0,3.0,79,0.00,CLR,,0.00,WeatherDisplay:10.37,2013-05-24 04:55:00,
2013-05-23 22:00:00,53.1,47.1,29.94,WNW,295,1.0,2.0,80,0.00,CLR,,0.00,WeatherDisplay:10.37,2013-05-24 05:00:00,
2013-05-23 22:05:00,52.9,46.9,29.94,WNW,302,2.0,2.0,80,0.00,CLR,,0.00,WeatherDisplay:10.37,2013-05-24 05:05:00,
2013-05-23 22:10:00,52.5,46.5,29.94,WNW,302,1.0,2.0,80,0.00,CLR,,0.00,WeatherDisplay:10.37,2013-05-24 05:10:00,
2013-05-23 22:15:00,52.2,46.2,29.94,WNW,295,0.0,1.0,80,0.00,CLR,,0.00,WeatherDisplay:10.37,2013-05-24 05:15:00,
2013-05-23 22:20:00,52.2,46.2,29.94,WNW,288,0.0,2.0,80,0.00,CLR,,0.00,WeatherDisplay:10.37,2013-05-24 05:20:00,
2013-05-23 22:25:00,52.2,46.2,29.94,WNW,288,0.0,1.0,80,0.00,CLR,,0.00,WeatherDisplay:10.37,2013-05-24 05:25:00,
2013-05-23 22:30:00,52.2,46.5,29.95,West,276,1.0,1.0,81,0.00,CLR,,0.00,WeatherDisplay:10.37,2013-05-24 05:30:00,
2013-05-23 22:35:00,52.3,47.0,29.94,West,269,1.0,4.0,82,0.00,CLR,,0.00,WeatherDisplay:10.37,2013-05-24 05:35:00,
2013-05-23 22:40:00,52.4,47.0,29.94,West,273,1.0,3.0,82,0.00,CLR,,0.00,WeatherDisplay:10.37,2013-05-24 05:40:00,
2013-05-23 22:45:00,52.5,47.2,29.94,WSW,248,2.3,2.3,82,0.00,CLR,,0.00,WeatherDisplay:10.37,2013-05-24 05:45:00,
2013-05-23 22:50:00,52.7,47.4,29.94,West,270,1.2,1.2,82,0.00,CLR,,0.00,WeatherDisplay:10.37,2013-05-24 05:50:00,
2013-05-23 22:55:00,52.7,47.4,29.94,WSW,248,3.5,3.5,82,0.00,CLR,,0.00,WeatherDisplay:10.37,2013-05-24 05:55:00,
2013-05-23 23:00:00,52.9,47.5,29.94,South,180,1.1,1.1,82,0.00,CLR,,0.00,WeatherDisplay:10.37,2013-05-24 06:00:00,
2013-05-23 23:05:00,52.5,47.2,29.94,SW,225,3.5,3.5,82,0.00,CLR,,0.00,WeatherDisplay:10.37,2013-05-24 06:05:00,
2013-05-23 23:11:00,52.3,47.0,29.94,SSE,158,2.3,2.3,82,0.00,CLR,,0.00,WeatherDisplay:10.37,2013-05-24 06:11:00,
2013-05-23 23:16:00,52.2,47.2,29.94,SW,225,3.5,3.5,83,0.00,CLR,,0.00,WeatherDisplay:10.37,2013-05-24 06:16:00,
2013-05-23 23:21:00,52.2,47.2,29.94,SW,225,2.3,2.3,83,0.00,CLR,,0.00,WeatherDisplay:10.37,2013-05-24 06:21:00,
2013-05-23 23:26:00,52.2,47.5,29.94,WSW,248,2.3,2.3,84,0.00,CLR,,0.00,WeatherDisplay:10.37,2013-05-24 06:26:00,
2013-05-23 23:31:00,52.0,47.3,29.94,WSW,248,1.4,1.4,84,0.00,CLR,,0.00,WeatherDisplay:10.37,2013-05-24 06:31:00,
2013-05-23 23:36:00,52.0,47.0,29.94,SW,225,1.2,1.2,83,0.00,CLR,,0.00,WeatherDisplay:10.37,2013-05-24 06:36:00,
2013-05-23 23:42:00,52.0,47.6,29.94,SW,225,3.5,3.5,85,0.00,CLR,,0.00,WeatherDisplay:10.37,2013-05-24 06:42:00,
2013-05-23 23:47:00,52.0,47.0,29.94,SW,225,2.3,2.3,83,0.00,CLR,,0.00,WeatherDisplay:10.37,2013-05-24 06:47:00,
2013-05-23 23:52:00,52.0,47.3,29.93,SW,225,3.5,3.5,84,0.00,CLR,,0.00,WeatherDisplay:10.37,2013-05-24 06:52:00,
2013-05-23 23:57:00,52.0,47.9,29.93,South,180,2.3,2.3,86,0.00,CLR,,0.00,WeatherDisplay:10.37,2013-05-24 06:57:00,